createdAt,value
2019-01-17T00:02:16.160Z,1.17
2019-01-17T00:05:14.648Z,1.00
2019-01-17T00:08:04.347Z,0.73
2019-01-17T00:10:54.309Z,2.07
2019-01-17T00:13:46.530Z,1.33
2019-01-17T00:16:47.978Z,1.37
2019-01-17T00:19:28.418Z,1.30
2019-01-17T00:22:27.404Z,0.83
2019-01-17T00:25:29.040Z,0.90
2019-01-17T00:28:24.524Z,0.70
2019-01-17T00:31:14.112Z,1.20
2019-01-17T00:34:04.184Z,2.13
2019-01-17T00:36:53.982Z,0.87
2019-01-17T00:39:49.152Z,0.70
2019-01-17T00:42:47.488Z,1.50
2019-01-17T00:45:37.031Z,1.20
2019-01-17T00:48:32.606Z,1.00
2019-01-17T00:51:30.943Z,0.80
2019-01-17T00:54:26.266Z,1.10
2019-01-17T00:57:18.504Z,0.93
2019-01-17T01:00:16.667Z,0.70
2019-01-17T01:03:06.628Z,2.33
2019-01-17T01:06:08.309Z,0.80
2019-01-17T01:09:01.302Z,0.80
2019-01-17T01:11:57.283Z,2.63
2019-01-17T01:15:05.034Z,1.03
2019-01-17T01:17:54.707Z,0.70
2019-01-17T01:20:47.157Z,0.70
2019-01-17T01:23:36.929Z,2.00
2019-01-17T01:26:29.331Z,0.70
2019-01-17T01:29:15.817Z,0.50
2019-01-17T01:32:11.441Z,0.80
2019-01-17T01:35:07.462Z,0.80
2019-01-17T01:38:15.314Z,0.87
2019-01-17T01:41:07.865Z,1.20
2019-01-17T01:44:13.775Z,1.03
2019-01-17T01:47:03.607Z,1.30
2019-01-17T01:49:53.391Z,0.80
2019-01-17T01:52:45.895Z,0.73
2019-01-17T01:55:34.131Z,0.93
2019-01-17T01:58:22.419Z,0.97
2019-01-17T02:01:10.579Z,0.73
2019-01-17T02:03:58.883Z,1.03
2019-01-17T02:06:46.658Z,1.80
2019-01-17T02:09:35.017Z,0.60
2019-01-17T02:12:23.399Z,1.57
2019-01-17T02:15:11.574Z,1.43
2019-01-17T02:17:59.622Z,0.70
2019-01-17T02:20:48.169Z,1.27
2019-01-17T02:23:36.346Z,1.00
2019-01-17T02:26:25.935Z,1.50
2019-01-17T02:29:14.106Z,0.77
2019-01-17T02:32:02.408Z,1.00
2019-01-17T02:34:50.757Z,0.70
2019-01-17T02:37:39.094Z,0.70
2019-01-17T02:40:27.163Z,2.50
2019-01-17T02:43:15.284Z,0.60
2019-01-17T02:46:03.392Z,1.47
2019-01-17T02:48:39.128Z,0.90
2019-01-17T02:51:27.600Z,1.00
2019-01-17T02:54:15.943Z,0.60
2019-01-17T02:57:04.318Z,0.87
2019-01-17T02:59:52.234Z,1.60
2019-01-17T03:02:40.280Z,0.73
2019-01-17T03:05:28.453Z,0.80
2019-01-17T03:08:16.489Z,0.60
2019-01-17T03:11:04.668Z,0.63
2019-01-17T03:13:53.060Z,0.70
2019-01-17T03:16:41.447Z,0.70
2019-01-17T03:19:29.600Z,0.63
2019-01-17T03:22:17.799Z,0.97
2019-01-17T03:25:08.420Z,1.03
2019-01-17T03:27:56.564Z,0.90
2019-01-17T03:30:44.706Z,0.63
2019-01-17T03:33:33.055Z,0.90
2019-01-17T03:36:21.260Z,2.67
2019-01-17T03:39:09.343Z,0.80
2019-01-17T03:41:57.688Z,1.03
2019-01-17T03:44:45.573Z,1.33
2019-01-17T03:47:34.036Z,0.60
2019-01-17T03:50:22.473Z,1.13
2019-01-17T03:53:10.754Z,0.80
2019-01-17T03:55:59.101Z,1.47
2019-01-17T03:58:47.451Z,0.77
2019-01-17T04:01:35.465Z,1.13
2019-01-17T04:04:23.833Z,1.17
2019-01-17T04:07:12.106Z,1.50
2019-01-17T04:10:00.409Z,2.30
2019-01-17T04:12:48.626Z,0.73
2019-01-17T04:15:36.903Z,2.30
2019-01-17T04:18:15.714Z,0.70
2019-01-17T04:21:04.064Z,0.67
2019-01-17T04:23:52.397Z,0.60
2019-01-17T04:26:40.691Z,0.80
2019-01-17T04:29:29.096Z,3.60
2019-01-17T04:32:17.369Z,1.37
2019-01-17T04:35:05.919Z,0.70
2019-01-17T04:37:54.227Z,0.67
2019-01-17T04:40:42.353Z,1.43
2019-01-17T04:43:30.613Z,1.40
2019-01-17T04:46:19.137Z,0.83
2019-01-17T04:49:07.123Z,0.70
2019-01-17T04:52:04.696Z,1.23
2019-01-17T04:54:53.185Z,1.07
2019-01-17T04:57:41.217Z,1.03
2019-01-17T05:00:29.549Z,0.90
2019-01-17T05:03:17.461Z,0.60
2019-01-17T05:06:05.753Z,1.33
2019-01-17T05:08:54.224Z,0.60
2019-01-17T05:11:30.077Z,1.80
2019-01-17T05:14:18.377Z,2.53
2019-01-17T05:17:06.539Z,0.77
2019-01-17T05:19:54.841Z,0.80
2019-01-17T05:22:42.872Z,1.37
2019-01-17T05:25:30.990Z,0.70
2019-01-17T05:28:00.691Z,0.60
2019-01-17T05:30:48.994Z,3.87
2019-01-17T05:33:37.463Z,0.70
2019-01-17T05:36:25.814Z,1.37
2019-01-17T05:39:13.974Z,2.00
2019-01-17T05:42:02.261Z,1.90
2019-01-17T05:44:50.227Z,0.70
2019-01-17T05:47:38.277Z,1.63
2019-01-17T05:50:26.415Z,0.70
2019-01-17T05:53:14.652Z,2.90
2019-01-17T05:56:02.762Z,0.97
2019-01-17T05:58:50.742Z,1.53
2019-01-17T06:01:38.960Z,1.37
2019-01-17T06:04:27.096Z,1.07
2019-01-17T06:07:15.200Z,3.33
2019-01-17T06:10:04.989Z,2.30
2019-01-17T06:12:54.681Z,1.83
2019-01-17T06:15:43.514Z,3.60
2019-01-17T06:18:31.514Z,1.63
2019-01-17T06:21:19.612Z,1.00
2019-01-17T06:24:07.975Z,1.27
2019-01-17T06:26:56.045Z,1.37
2019-01-17T06:29:44.068Z,1.20
2019-01-17T06:32:32.212Z,1.47
2019-01-17T06:35:20.345Z,0.90
2019-01-17T06:38:08.391Z,1.20
2019-01-17T06:40:56.566Z,5.60
2019-01-17T06:43:44.889Z,1.53
2019-01-17T06:46:33.301Z,1.47
2019-01-17T06:49:22.095Z,1.13
2019-01-17T06:52:10.060Z,1.33
2019-01-17T06:54:58.498Z,1.33
2019-01-17T06:57:40.176Z,1.23
2019-01-17T07:00:28.607Z,3.80
2019-01-17T07:03:16.942Z,3.60
2019-01-17T07:06:05.050Z,1.10
2019-01-17T07:08:53.261Z,2.83
2019-01-17T07:11:41.309Z,1.60
2019-01-17T07:14:29.711Z,1.70
2019-01-17T07:17:17.728Z,1.63
2019-01-17T07:20:14.269Z,2.90
2019-01-17T07:23:02.688Z,6.77
2019-01-17T07:25:50.806Z,10.17
2019-01-17T07:28:38.805Z,3.43
2019-01-17T07:31:27.180Z,6.30
2019-01-17T07:34:15.561Z,11.37
2019-01-17T07:37:03.927Z,18.73
2019-01-17T07:39:52.053Z,14.60
2019-01-17T07:42:40.261Z,9.80
2019-01-17T07:45:28.431Z,7.73
2019-01-17T07:48:18.119Z,10.63
2019-01-17T07:51:06.788Z,26.30
2019-01-17T07:53:55.161Z,37.07
2019-01-17T07:56:36.435Z,22.33
2019-01-17T07:59:08.612Z,23.70
2019-01-17T08:01:38.286Z,23.30
2019-01-17T08:04:07.947Z,33.33
2019-01-17T08:06:56.749Z,31.03
2019-01-17T08:09:42.846Z,64.67
2019-01-17T08:12:30.998Z,59.67
2019-01-17T08:15:19.749Z,65.23
2019-01-17T08:18:05.187Z,36.67
2019-01-17T08:20:53.488Z,37.37
2019-01-17T08:23:41.986Z,28.97
2019-01-17T08:26:30.216Z,29.73
2019-01-17T08:29:18.386Z,33.20
2019-01-17T08:32:06.526Z,15.13
2019-01-17T08:34:54.886Z,15.30
2019-01-17T08:37:42.885Z,16.27
2019-01-17T08:40:31.865Z,22.73
2019-01-17T08:43:20.281Z,16.43
2019-01-17T08:46:08.650Z,17.77
2019-01-17T08:48:56.922Z,15.13
2019-01-17T08:51:45.221Z,16.73
2019-01-17T08:54:33.806Z,16.90
2019-01-17T08:57:21.981Z,7.87
2019-01-17T09:00:21.993Z,14.63
2019-01-17T09:03:10.429Z,18.13
2019-01-17T09:05:58.621Z,15.13
2019-01-17T09:08:47.374Z,15.43
2019-01-17T09:11:35.662Z,9.33
2019-01-17T09:14:23.927Z,13.30
2019-01-17T09:17:12.245Z,24.73
2019-01-17T09:20:01.002Z,17.57
2019-01-17T09:22:49.212Z,8.80
2019-01-17T09:25:37.500Z,10.23
2019-01-17T09:28:25.582Z,12.57
2019-01-17T09:31:14.141Z,12.73
2019-01-17T09:34:02.490Z,9.17
2019-01-17T09:36:50.766Z,9.00
2019-01-17T09:39:39.284Z,9.80
2019-01-17T09:42:27.912Z,9.00
2019-01-17T09:45:17.380Z,6.90
2019-01-17T09:48:05.769Z,10.67
2019-01-17T09:50:54.760Z,11.50
2019-01-17T09:53:43.136Z,14.23
2019-01-17T09:56:31.693Z,12.23
2019-01-17T09:59:20.250Z,16.17
2019-01-17T10:02:08.807Z,13.57
2019-01-17T10:04:57.230Z,9.63
2019-01-17T10:07:45.409Z,7.80
2019-01-17T10:10:33.702Z,8.33
2019-01-17T10:13:22.454Z,9.30
2019-01-17T10:16:14.605Z,12.83
2019-01-17T10:19:15.006Z,10.90
2019-01-17T10:22:18.965Z,10.40
2019-01-17T10:25:10.370Z,4.77
2019-01-17T10:28:04.910Z,8.83
2019-01-17T10:31:03.393Z,8.87
2019-01-17T10:33:57.371Z,7.90
2019-01-17T10:36:54.415Z,8.10
2019-01-17T10:40:07.977Z,8.67
2019-01-17T10:43:22.939Z,6.30
2019-01-17T10:46:40.075Z,4.50
2019-01-17T10:49:31.475Z,6.63
2019-01-17T10:52:31.659Z,5.50
2019-01-17T10:55:38.083Z,6.67
2019-01-17T10:58:47.357Z,7.37
2019-01-17T11:01:47.838Z,5.30
2019-01-17T11:04:41.881Z,3.83
2019-01-17T11:07:40.065Z,7.23
2019-01-17T11:10:49.901Z,6.50
2019-01-17T11:13:47.054Z,4.90
2019-01-17T11:16:44.238Z,7.10
2019-01-17T11:19:47.517Z,10.83
2019-01-17T11:22:50.695Z,10.40
2019-01-17T11:25:59.324Z,11.90
2019-01-17T11:29:20.403Z,12.50
2019-01-17T11:32:29.687Z,13.77
2019-01-17T11:35:23.378Z,12.80
2019-01-17T11:38:14.386Z,14.67
2019-01-17T11:41:17.344Z,14.77
2019-01-17T11:44:28.778Z,7.93
2019-01-17T11:47:42.583Z,16.10
2019-01-17T11:50:51.290Z,5.73
2019-01-17T11:53:45.063Z,3.77
2019-01-17T11:56:42.194Z,10.00
2019-01-17T11:59:36.186Z,13.47
2019-01-17T12:02:42.544Z,7.80
2019-01-17T12:05:30.890Z,12.67
2019-01-17T12:08:19.308Z,7.80
2019-01-17T12:11:07.739Z,9.73
2019-01-17T12:13:56.460Z,14.03
2019-01-17T12:16:44.876Z,26.73
2019-01-17T12:19:33.290Z,26.33
2019-01-17T12:22:21.323Z,21.80
2019-01-17T12:25:09.321Z,30.50
2019-01-17T12:27:57.507Z,23.40
2019-01-17T12:30:45.927Z,25.33
2019-01-17T12:33:34.411Z,11.57
2019-01-17T12:36:23.109Z,15.23
2019-01-17T12:39:13.959Z,12.17
2019-01-17T12:42:03.039Z,15.03
2019-01-17T12:44:51.488Z,12.47
2019-01-17T12:47:39.874Z,10.70
2019-01-17T12:50:29.379Z,15.53
2019-01-17T12:53:17.600Z,11.67
2019-01-17T12:56:07.241Z,11.57
2019-01-17T12:58:56.072Z,9.80
2019-01-17T13:01:44.044Z,10.00
2019-01-17T13:04:32.267Z,14.83
2019-01-17T13:07:20.873Z,7.10
2019-01-17T13:10:14.405Z,12.03
2019-01-17T13:13:02.993Z,12.57
2019-01-17T13:15:51.226Z,9.70
2019-01-17T13:18:39.362Z,6.93
2019-01-17T13:21:27.533Z,11.50
2019-01-17T13:24:15.790Z,8.43
2019-01-17T13:27:04.938Z,18.77
2019-01-17T13:29:53.383Z,11.43
2019-01-17T13:32:42.307Z,19.57
2019-01-17T13:35:30.784Z,15.57
2019-01-17T13:38:19.105Z,22.20
2019-01-17T13:41:07.058Z,27.40
2019-01-17T13:43:55.220Z,19.80
2019-01-17T13:46:43.522Z,22.83
2019-01-17T13:49:32.069Z,15.20
2019-01-17T13:52:10.669Z,17.30
2019-01-17T13:54:59.395Z,18.83
2019-01-17T13:57:47.567Z,20.00
2019-01-17T14:00:35.777Z,14.80
2019-01-17T14:03:23.982Z,11.67
2019-01-17T14:06:12.607Z,12.47
2019-01-17T14:09:00.969Z,15.27
2019-01-17T14:11:49.172Z,14.43
2019-01-17T14:14:37.261Z,13.97
2019-01-17T14:17:25.643Z,22.15
2019-01-17T14:20:14.578Z,13.33
2019-01-17T14:23:02.884Z,20.07
2019-01-17T14:25:51.127Z,18.00
2019-01-17T14:28:39.367Z,8.37
2019-01-17T14:31:27.640Z,12.23
2019-01-17T14:34:16.088Z,13.30
2019-01-17T14:37:04.493Z,27.13
2019-01-17T14:39:52.748Z,11.70
2019-01-17T14:42:40.896Z,16.97
2019-01-17T14:45:16.469Z,14.33
2019-01-17T14:48:05.037Z,13.70
2019-01-17T14:50:53.379Z,10.10
2019-01-17T14:53:41.658Z,13.93
2019-01-17T14:56:29.934Z,13.43
2019-01-17T14:59:18.462Z,7.27
2019-01-17T15:01:51.108Z,15.87
2019-01-17T15:04:39.232Z,10.10
2019-01-17T15:07:27.279Z,12.03
2019-01-17T15:10:18.634Z,9.13
2019-01-17T15:13:07.252Z,12.70
2019-01-17T15:15:55.643Z,13.77
2019-01-17T15:18:44.090Z,8.10
2019-01-17T15:21:32.294Z,8.17
2019-01-17T15:24:20.515Z,12.33
2019-01-17T15:27:09.162Z,15.60
2019-01-17T15:29:57.886Z,11.00
2019-01-17T15:32:46.428Z,9.70
2019-01-17T15:35:16.216Z,11.40
2019-01-17T15:38:04.805Z,8.20
2019-01-17T15:40:53.180Z,10.07
2019-01-17T15:43:41.628Z,9.97
2019-01-17T15:46:30.146Z,13.10
2019-01-17T15:49:18.860Z,10.50
2019-01-17T15:52:07.423Z,9.50
2019-01-17T15:54:56.140Z,10.40
2019-01-17T15:57:44.940Z,7.53
2019-01-17T16:00:34.462Z,5.70
2019-01-17T16:03:22.600Z,7.77
2019-01-17T16:06:10.886Z,10.90
2019-01-17T16:08:58.979Z,10.90
2019-01-17T16:11:47.149Z,4.13
2019-01-17T16:14:35.507Z,9.53
2019-01-17T16:17:23.902Z,8.03
2019-01-17T16:20:14.645Z,4.17
2019-01-17T16:23:03.013Z,6.83
2019-01-17T16:25:51.358Z,6.53
2019-01-17T16:28:21.028Z,9.37
2019-01-17T16:31:09.227Z,11.17
2019-01-17T16:33:57.468Z,6.40
2019-01-17T16:36:46.028Z,4.47
2019-01-17T16:39:34.750Z,3.80
2019-01-17T16:42:23.103Z,10.00
2019-01-17T16:45:08.669Z,7.50
2019-01-17T16:47:56.782Z,4.50
2019-01-17T16:50:45.119Z,6.00
2019-01-17T16:53:33.281Z,7.20
2019-01-17T16:56:21.810Z,11.53
2019-01-17T16:59:10.105Z,3.40
2019-01-17T17:01:58.370Z,6.93
2019-01-17T17:04:46.960Z,6.70
2019-01-17T17:07:35.383Z,4.23
2019-01-17T17:10:23.878Z,6.10
2019-01-17T17:13:12.511Z,4.00
2019-01-17T17:16:01.131Z,7.70
2019-01-17T17:18:49.262Z,4.50
2019-01-17T17:21:37.931Z,6.77
2019-01-17T17:24:26.543Z,4.77
2019-01-17T17:27:14.718Z,4.57
2019-01-17T17:30:05.357Z,9.83
2019-01-17T17:32:54.475Z,8.57
2019-01-17T17:35:42.508Z,5.03
2019-01-17T17:38:30.697Z,2.20
2019-01-17T17:41:19.181Z,4.73
2019-01-17T17:44:07.390Z,2.87
2019-01-17T17:46:55.717Z,3.40
2019-01-17T17:49:44.358Z,5.33
2019-01-17T17:52:32.514Z,6.03
2019-01-17T17:55:21.501Z,3.43
2019-01-17T17:58:10.172Z,8.00
2019-01-17T18:01:00.341Z,4.10
2019-01-17T18:03:48.467Z,2.30
2019-01-17T18:06:38.031Z,3.67
2019-01-17T18:09:27.809Z,3.80
2019-01-17T18:12:03.675Z,10.10
2019-01-17T18:14:51.827Z,2.80
2019-01-17T18:17:40.143Z,4.13
2019-01-17T18:20:28.998Z,5.53
2019-01-17T18:23:17.133Z,2.37
2019-01-17T18:26:05.434Z,3.47
2019-01-17T18:28:53.842Z,5.83
2019-01-17T18:31:42.200Z,4.63
2019-01-17T18:34:30.495Z,4.47
2019-01-17T18:37:18.895Z,1.73
2019-01-17T18:40:10.466Z,4.10
2019-01-17T18:42:59.812Z,2.30
2019-01-17T18:45:48.345Z,2.67
2019-01-17T18:48:36.798Z,1.43
2019-01-17T18:51:25.009Z,3.50
2019-01-17T18:54:13.635Z,5.40
2019-01-17T18:57:01.904Z,6.87
2019-01-17T18:59:50.382Z,2.60
2019-01-17T19:02:38.527Z,1.60
2019-01-17T19:05:30.316Z,5.27
2019-01-17T19:08:18.665Z,3.20
2019-01-17T19:11:07.656Z,2.13
2019-01-17T19:13:56.341Z,5.37
2019-01-17T19:16:46.360Z,2.20
2019-01-17T19:19:34.641Z,3.50
2019-01-17T19:22:23.232Z,2.67
2019-01-17T19:25:11.635Z,2.33
2019-01-17T19:28:00.138Z,1.03
2019-01-17T19:30:48.287Z,2.40
2019-01-17T19:33:36.422Z,2.83
2019-01-17T19:36:24.932Z,2.50
2019-01-17T19:39:13.886Z,2.40
2019-01-17T19:41:44.098Z,1.33
2019-01-17T19:44:32.444Z,1.30
2019-01-17T19:47:20.684Z,3.13
2019-01-17T19:50:28.453Z,1.77
2019-01-17T19:53:17.343Z,1.97
2019-01-17T19:56:05.689Z,2.53
2019-01-17T19:58:54.194Z,1.50
2019-01-17T20:01:39.213Z,0.80
2019-01-17T20:04:27.409Z,2.90
2019-01-17T20:07:15.786Z,1.53
2019-01-17T20:10:06.630Z,1.47
2019-01-17T20:12:55.356Z,0.93
2019-01-17T20:15:43.516Z,1.53
2019-01-17T20:18:31.930Z,2.93
2019-01-17T20:21:20.331Z,1.90
2019-01-17T20:24:08.875Z,8.63
2019-01-17T20:26:57.694Z,6.83
2019-01-17T20:29:47.187Z,4.10
2019-01-17T20:32:36.216Z,8.20
2019-01-17T20:35:24.378Z,6.10
2019-01-17T20:38:12.862Z,5.13
2019-01-17T20:41:01.305Z,0.80
2019-01-17T20:43:49.851Z,1.17
2019-01-17T20:46:38.441Z,2.50
2019-01-17T20:49:26.918Z,12.03
2019-01-17T20:52:15.663Z,2.47
2019-01-17T20:55:06.466Z,6.77
2019-01-17T20:57:54.768Z,6.00
2019-01-17T21:01:04.433Z,1.87
2019-01-17T21:03:52.475Z,6.67
2019-01-17T21:06:40.580Z,8.50
2019-01-17T21:09:29.113Z,2.40
2019-01-17T21:12:01.272Z,6.27
2019-01-17T21:14:49.494Z,6.67
2019-01-17T21:17:37.674Z,4.23
2019-01-17T21:20:25.731Z,4.73
2019-01-17T21:23:14.379Z,11.03
2019-01-17T21:26:02.771Z,5.97
2019-01-17T21:28:51.158Z,13.37
2019-01-17T21:31:20.980Z,11.10
2019-01-17T21:34:09.314Z,4.77
2019-01-17T21:36:57.384Z,7.00
2019-01-17T21:39:45.390Z,6.90
2019-01-17T21:42:33.529Z,5.70
2019-01-17T21:45:21.776Z,9.50
2019-01-17T21:48:11.479Z,9.00
2019-01-17T21:50:59.910Z,8.30
2019-01-17T21:53:48.043Z,7.47
2019-01-17T21:56:36.118Z,14.50
2019-01-17T21:59:24.488Z,9.10
2019-01-17T22:02:12.959Z,5.47
2019-01-17T22:05:01.284Z,7.90
2019-01-17T22:07:49.800Z,8.30
2019-01-17T22:10:37.918Z,5.40
2019-01-17T22:13:26.113Z,5.50
2019-01-17T22:16:14.781Z,8.70
2019-01-17T22:19:02.717Z,7.87
2019-01-17T22:21:50.869Z,5.67
2019-01-17T22:24:39.295Z,4.90
2019-01-17T22:27:27.994Z,10.97
2019-01-17T22:30:22.964Z,6.00
2019-01-17T22:33:11.493Z,3.20
2019-01-17T22:36:00.254Z,5.40
2019-01-17T22:38:48.778Z,8.73
2019-01-17T22:41:37.057Z,4.90
2019-01-17T22:44:25.603Z,4.67
2019-01-17T22:47:14.339Z,4.10
2019-01-17T22:50:02.481Z,4.50
2019-01-17T22:52:51.649Z,5.67
2019-01-17T22:55:39.865Z,5.13
2019-01-17T22:58:28.111Z,2.73
2019-01-17T23:01:04.406Z,4.87
2019-01-17T23:03:53.412Z,5.93
2019-01-17T23:06:41.832Z,5.17
2019-01-17T23:09:30.643Z,4.43
2019-01-17T23:12:19.039Z,5.53
2019-01-17T23:15:09.097Z,5.70
2019-01-17T23:17:57.607Z,3.57
2019-01-17T23:20:45.597Z,2.70
2019-01-17T23:23:34.235Z,2.90
2019-01-17T23:26:22.684Z,5.37
2019-01-17T23:29:15.931Z,3.93
2019-01-17T23:32:01.182Z,5.90
2019-01-17T23:34:49.546Z,6.00
2019-01-17T23:37:37.954Z,2.67
2019-01-17T23:40:25.943Z,2.30
2019-01-17T23:43:14.313Z,2.60
2019-01-17T23:46:02.539Z,4.20
2019-01-17T23:48:51.278Z,6.07
2019-01-17T23:51:39.460Z,3.53
2019-01-17T23:54:27.617Z,2.93
2019-01-17T23:57:16.248Z,5.83
